Mc Alester Regional Airport
KMLC : now visible

Airfield :











YOU CAN JOIN US ON...

 
LOGIN :

Register | Disclaimer

   EN    FR    IT 

 









Legend :    VFR   Marginal VFR   IFR   Intensive IFR   Very Intensive IFR
Visi :
Ceiling :
>= 8 km
>= 3000ft
5 to 8 km
1000 to 3000 ft
1500m to 5 km
500 to 1000 ft
800 to 1500m
200 to 500 ft
< 800m
< 200 ft
Symbols :   Thunderstorms  Fog  Heavy snow  Heavy precipitations  Wind > 20 kt






- Airport Elevation : 770 ft


KMLC - Mc Alester Regional

CURRENT METAR :
  • 280353Z AUTO 07003KT 10SM FEW070 FEW110 21/17 A3005 RMK AO2 SLP167 T02110172

EXPIRED METARs :
  • 280253Z AUTO 08003KT 10SM FEW100 23/17 A3003 RMK AO2 SLP159 T02330172 53027
  • 280153Z AUTO 08003KT 10SM CLR 23/18 A3000 RMK AO2 SLP149 T02330178
  • 280053Z AUTO 05003KT 10SM CLR 29/17 A2996 RMK AO2 SLP134 T02890172
  • 272353Z AUTO VRB03KT 10SM CLR 32/15 A2995 RMK AO2 SLP132 T03170150 10344 20311 55002

TAF KMLC
Valid from the 28 at 03:00 until the 29 at 00:00 UTC


280305Z 2803/2824 VRB05KT P6SM FEW100
FM281500 08005KT P6SM -SHRA BKN100
PROB30 2815/2821 4SM -TSRA BKN050CB
KZFW FIR / North America



MET'MAP, your aeronautical weather chart ! - Copyright ORBIFLY December 2007 - Disclaimer

ORBIFLY MET'MAP TEAM :

Programming & Development : Alexandra Zaïnal
Original concept : Baudouin d'Aumeries
Technical & hardware support : Manuel Goepfert
Assistance : Marc-Olivier Méhu




SOURCES & CREDITS :

   NOAA       Earth
Advisory